Aérodrome :
LOGIN :

S'inscrire | Disclaimer

   EN    FR    IT 

 










Légende :    VFR   VFR Marginal   IFR   IFR Intensif   IFR Très Intensif
Visi : 
Plafond : 
>= 8 km
>= 3000ft
5 à 8 km
1000 à 3000 ft
1500m à 5 km
500 à 1000 ft
800 à 1500m
200 à 500 ft
< 800m
< 200 ft
Symboles :   Orages  Brouillard  Fortes neiges  Fortes précipitations  Vent > 20 kt
SIGMETs :   Divers  Orages  Givrage  Turbulence  Onde Orograph.  Cendres Volcan.







- Altitude de l'aérodrome : 408 ft
- Code IATA : FKB


EDSB - Karlsruhe Baden Baden

DERNIER METAR :
  • 161520Z 23010KT 210V270 9999 VCSH FEW022 BKN038 06/03 Q1001

METARs EXPIRÉS :
  • 161450Z 24010KT 9999 VCSH FEW028 SCT034 06/03 Q1001
  • 161420Z 25013G23KT 210V270 9999 VCSH FEW012 BKN038 BKN056 07/02 Q1001
  • 161350Z 24018G28KT 210V270 9999 VCSH FEW012 SCT038 BKN052 08/02 Q1000
  • 161320Z 24014G25KT 9999 VCSH BKN048 08/03 Q1000
  • 161250Z 24011KT 200V270 9999 VCSH FEW044 BKN053 08/03 Q1000

TAF TAF EDSB
Valide du 16 à 12h jusqu'au 17 à 12h UTC


161100Z 1612/1712 22012KT 9999 BKN030
TEMPO 1612/1622 25020G30KT RA
TEMPO 1622/1712 SHSN BKN012CB
PROB30
TEMPO 1622/1712 25020G35KT TSSN BKN012CB
Pas de NOTAMs connus pour ce terrain.
1 SIGMET publié pour la FIR Langen (EDGG) :
 
Turbulence forte
EDGG SIGMET 7 VALID 161400/161600 EDZF
EDGG LANGEN FIR SEV TURB FCST S OF N4900 SFC/FL060 STNR WKN=



MET'MAP, la Météo Aéronautique d'un coup d'oeil ! - Copyright ORBIFLY Décembre 2007 - Disclaimer

ORBIFLY MET'MAP TEAM :

Programmation & Développement : Alexandra Zaïnal
Conception & Développement : Baudouin d'Aumeries
Co-Programmation & Développement : Marc-Olivier Méhu
Soutien technique & logistique : Manuel Goepfert

Contact : metmap@orbifly.com




SOURCES & CREDITS :

   NOAA